ヤクーツク の空港の天気 - METARとTAF

ヤクーツク空港 ( UEEE / YKS ) - ロシア ヤクーツク
飛行場実況気象(Metar)
観測時間01/21 02:30 +09 (01/20 17:30 UTC)
風向・風速静穏 0m/s
視程250m
天気現象
全天を覆う雲 鉛直視程 120m
気温-40℃
湿度59%
気圧1031hPa
METARUEEE 201730Z 00000MPS 0250 R23L/0700N FG VV004 M40/M45 Q1031 R23L/490150 NOSIG RMK QBB120 QFE764
過去の天気等 Google飛行場航空写真 Wunderground天気予報

過去48時間のMETAR

飛行場予報(TAF)
発表時間: 1/21 02:00 +09 (1/20 17:00 UTC)
予報対象時間: 21日3時 +09 ~ 22日9時 +09
風向・風速不定 1m/s
視程300m
天気現象
全天を覆う雲 鉛直視程 90m
21日3時 +09 ~ 21日12時 +09 に一時的に
視程800m
天気現象
なし
TAF UEEE 201700Z 2018/2124 VRB01MPS 0300 FG VV003 TXM41/2018Z TNM43/2023Z
TEMPO 2018/2103 0800 FG NSC